Time;durP1;ratioP1;P1;durP2;ratioP2;P2;SDS_P1;SDS_P2;PMS_P1;PMS_P2;Temp;Humidity;BMP_temperature;BMP_pressure;BME280_temperature;BME280_humidity;BME280_pressure;Samples;Min_cycle;Max_cycle;Signal;HPM_P1;HPM_P2
2021/06/11 00:00:07;;;;;;;0.28;0.28;;;21.20;90.90;;;;;;4414118;32;20061;-56
2021/06/11 00:02:33;;;;;;;1.95;0.70;;;21.20;91.00;;;;;;4401017;32;20128;-56
2021/06/11 00:04:58;;;;;;;0.43;0.43;;;21.30;91.00;;;;;;4414703;32;20066;-59
2021/06/11 00:07:23;;;;;;;0.20;0.20;;;21.30;90.70;;;;;;4415925;32;20078;-58
2021/06/11 00:09:49;;;;;;;0.22;0.22;;;21.30;91.00;;;;;;4400653;32;20061;-57
2021/06/11 00:12:14;;;;;;;0.30;0.30;;;21.30;90.70;;;;;;4416001;32;20522;-57
2021/06/11 00:14:41;;;;;;;0.30;0.30;;;21.20;90.80;;;;;;4429310;32;20065;-56
2021/06/11 00:17:09;;;;;;;0.30;0.30;;;21.10;91.10;;;;;;4417859;32;20065;-57
2021/06/11 00:19:35;;;;;;;0.20;0.20;;;21.20;91.00;;;;;;4416875;32;20065;-58
2021/06/11 00:22:01;;;;;;;0.30;0.30;;;21.20;91.50;;;;;;4404562;32;20122;-55
2021/06/11 00:24:27;;;;;;;0.25;0.25;;;21.20;91.50;;;;;;4417672;32;20140;-59
2021/06/11 00:26:52;;;;;;;0.20;0.20;;;21.20;91.50;;;;;;4417075;32;20060;-56
2021/06/11 00:29:18;;;;;;;0.40;0.40;;;21.20;91.60;;;;;;4430187;32;20531;-59
2021/06/11 00:31:44;;;;;;;0.60;0.40;;;21.20;91.60;;;;;;4416400;32;20499;-57
2021/06/11 00:34:10;;;;;;;0.45;0.40;;;21.20;91.80;;;;;;4431151;32;20077;-57
2021/06/11 00:36:35;;;;;;;0.30;0.30;;;21.10;91.80;;;;;;4416736;32;20573;-60
2021/06/11 00:39:01;;;;;;;0.32;0.32;;;21.10;91.90;;;;;;4417447;32;20065;-58
2021/06/11 00:41:26;;;;;;;0.20;0.20;;;21.10;91.90;;;;;;4415813;32;20053;-57
2021/06/11 00:43:52;;;;;;;0.40;0.40;;;21.00;92.00;;;;;;4429825;32;20062;-56
2021/06/11 00:46:17;;;;;;;0.32;0.32;;;20.90;92.30;;;;;;4429674;32;20074;-56
2021/06/11 00:48:43;;;;;;;0.30;0.30;;;20.80;92.60;;;;;;4430667;32;20077;-59
2021/06/11 00:51:08;;;;;;;0.30;0.30;;;20.70;92.70;;;;;;4431242;32;20061;-57
2021/06/11 00:53:34;;;;;;;0.62;0.62;;;20.80;92.80;;;;;;4429776;32;20522;-58
2021/06/11 00:56:00;;;;;;;0.37;0.37;;;20.70;92.80;;;;;;4430478;32;20076;-58
2021/06/11 00:58:25;;;;;;;0.43;0.43;;;20.60;93.10;;;;;;4429951;32;20169;-56
2021/06/11 01:00:51;;;;;;;3.05;0.95;;;20.60;93.50;;;;;;4417178;32;20161;-59
2021/06/11 01:03:18;;;;;;;0.45;0.40;;;20.50;93.70;;;;;;4430350;32;20120;-56
2021/06/11 01:05:43;;;;;;;0.35;0.35;;;20.50;93.90;;;;;;4416252;32;20446;-57
2021/06/11 01:08:12;;;;;;;0.20;0.20;;;20.40;94.10;;;;;;4416440;32;20081;-56
2021/06/11 01:10:38;;;;;;;0.55;0.40;;;20.30;94.30;;;;;;4429441;32;20073;-58
2021/06/11 01:13:04;;;;;;;0.40;0.40;;;20.30;94.50;;;;;;4424611;32;20196;-55
2021/06/11 01:15:30;;;;;;;0.50;0.50;;;20.20;94.70;;;;;;4401529;32;20091;-59
2021/06/11 01:17:56;;;;;;;0.40;0.40;;;20.20;95.00;;;;;;4414338;32;20068;-55
2021/06/11 01:20:22;;;;;;;0.40;0.30;;;20.30;94.90;;;;;;4400883;32;20090;-58
2021/06/11 01:23:02;;;;;;;0.57;0.40;;;20.30;94.80;;;;;;4400224;32;20066;-57
2021/06/11 01:25:37;;;;;;;0.20;0.20;;;20.50;94.80;;;;;;4414749;32;20070;-58
2021/06/11 01:28:05;;;;;;;0.30;0.30;;;20.50;94.80;;;;;;4400938;32;20094;-57
2021/06/11 01:30:32;;;;;;;1.12;0.70;;;20.50;95.00;;;;;;4414597;32;20602;-57
2021/06/11 01:32:59;;;;;;;1.10;0.60;;;20.30;95.40;;;;;;4374665;32;20066;-59
2021/06/11 01:35:33;;;;;;;0.93;0.85;;;20.20;95.70;;;;;;4400260;32;20459;-57
2021/06/11 01:38:02;;;;;;;0.50;0.50;;;20.30;95.70;;;;;;4413355;32;20085;-56
2021/06/11 01:40:30;;;;;;;0.30;0.30;;;20.30;95.50;;;;;;4412791;32;20078;-57
2021/06/11 01:42:58;;;;;;;0.50;0.50;;;20.20;96.00;;;;;;4414157;32;20141;-59
2021/06/11 01:45:24;;;;;;;2.80;1.08;;;20.30;95.90;;;;;;4414728;32;20128;-59
2021/06/11 01:47:51;;;;;;;0.30;0.30;;;20.30;95.60;;;;;;4413643;32;20129;-59
2021/06/11 01:50:22;;;;;;;0.60;0.47;;;20.40;95.50;;;;;;4414730;32;20236;-58
2021/06/11 01:52:48;;;;;;;0.40;0.40;;;20.40;95.50;;;;;;4401288;32;20177;-56
2021/06/11 01:55:14;;;;;;;0.65;0.50;;;20.30;95.70;;;;;;4388648;32;20078;-59
2021/06/11 01:57:40;;;;;;;0.20;0.20;;;20.20;96.00;;;;;;4412567;32;20076;-59
2021/06/11 02:00:07;;;;;;;0.50;0.50;;;20.00;96.30;;;;;;4415241;32;20057;-56
2021/06/11 02:02:35;;;;;;;0.40;0.40;;;20.10;96.30;;;;;;4415781;32;20558;-58
2021/06/11 02:05:04;;;;;;;0.47;0.47;;;20.30;96.00;;;;;;4429287;32;20061;-56
2021/06/11 02:07:30;;;;;;;2.28;0.93;;;20.30;95.90;;;;;;4414774;32;20081;-59
2021/06/11 02:09:56;;;;;;;5.78;0.45;;;20.30;95.80;;;;;;4428874;32;20067;-58
2021/06/11 02:12:22;;;;;;;0.20;0.20;;;20.30;96.10;;;;;;4429233;32;20148;-58
2021/06/11 02:14:48;;;;;;;0.20;0.20;;;20.10;96.40;;;;;;4429186;32;20129;-56
2021/06/11 02:17:15;;;;;;;0.47;0.37;;;20.10;96.60;;;;;;4415837;32;20396;-55
2021/06/11 02:19:41;;;;;;;0.32;0.32;;;20.20;96.70;;;;;;4428264;32;20074;-55
2021/06/11 02:22:09;;;;;;;13.25;0.40;;;20.20;96.60;;;;;;4429216;32;20116;-56
2021/06/11 02:24:38;;;;;;;0.45;0.32;;;20.20;96.60;;;;;;4415593;32;20507;-55
2021/06/11 02:27:05;;;;;;;0.30;0.30;;;20.30;96.80;;;;;;4415529;32;20065;-57
2021/06/11 02:29:31;;;;;;;0.40;0.40;;;20.20;97.10;;;;;;4427672;32;20061;-56
2021/06/11 02:31:56;;;;;;;0.57;0.57;;;20.20;97.20;;;;;;4423945;32;20074;-59
2021/06/11 02:34:22;;;;;;;0.30;0.30;;;20.20;97.10;;;;;;4415028;32;20066;-59
2021/06/11 02:36:47;;;;;;;0.85;0.73;;;20.10;97.30;;;;;;4414491;32;20078;-56
2021/06/11 02:39:13;;;;;;;3.10;1.27;;;20.10;97.40;;;;;;4429131;32;20065;-56
2021/06/11 02:41:44;;;;;;;0.35;0.35;;;20.10;97.50;;;;;;4415568;32;20069;-59
2021/06/11 02:44:12;;;;;;;0.30;0.30;;;20.20;97.60;;;;;;4414003;32;20117;-58
2021/06/11 02:46:45;;;;;;;18.98;0.88;;;20.10;97.80;;;;;;4417000;32;20194;-59
2021/06/11 02:49:36;;;;;;;0.20;0.20;;;20.10;97.90;;;;;;4416538;32;20057;-59
2021/06/11 02:52:05;;;;;;;;;;;20.20;97.80;;;;;;4394897;32;20428;-60
2021/06/11 02:54:33;;;;;;;0.60;0.60;;;20.20;98.00;;;;;;4402513;32;19974;-59
2021/06/11 02:57:09;;;;;;;0.20;0.20;;;20.10;98.00;;;;;;4390802;32;20074;-57
2021/06/11 02:59:47;;;;;;;0.22;0.22;;;19.90;98.40;;;;;;4415593;32;20133;-59
2021/06/11 03:02:30;;;;;;;0.20;0.20;;;20.10;98.30;;;;;;4400998;32;20062;-59
2021/06/11 03:04:57;;;;;;;0.30;0.30;;;20.10;98.70;;;;;;4415757;32;20078;-59
2021/06/11 03:07:27;;;;;;;3.60;1.25;;;20.10;98.30;;;;;;4401960;32;20074;-60
2021/06/11 03:09:58;;;;;;;0.30;0.30;;;20.00;98.70;;;;;;4414838;32;20074;-59
2021/06/11 03:12:24;;;;;;;0.40;0.40;;;20.00;98.60;;;;;;4415206;32;20058;-59
2021/06/11 03:14:52;;;;;;;0.30;0.30;;;20.10;98.80;;;;;;4414487;32;20065;-56
2021/06/11 03:17:19;;;;;;;0.43;0.43;;;20.10;98.80;;;;;;4416357;32;20455;-56
2021/06/11 03:19:51;;;;;;;0.30;0.30;;;20.20;99.00;;;;;;4389941;32;20412;-56
2021/06/11 03:22:23;;;;;;;0.40;0.40;;;20.10;99.40;;;;;;4390935;32;20066;-57
2021/06/11 03:25:04;;;;;;;0.32;0.32;;;20.00;99.50;;;;;;4401239;32;20418;-56
2021/06/11 03:27:37;;;;;;;0.93;0.40;;;20.00;99.70;;;;;;4414689;32;20068;-59
2021/06/11 03:30:08;;;;;;;0.50;0.50;;;19.90;99.90;;;;;;4430344;32;20057;-57
2021/06/11 03:32:40;;;;;;;0.40;0.40;;;19.90;99.90;;;;;;4423876;32;20073;-55
2021/06/11 03:35:12;;;;;;;0.20;0.20;;;20.00;99.90;;;;;;4405002;32;20070;-58
2021/06/11 03:37:39;;;;;;;0.32;0.32;;;20.00;99.90;;;;;;4426085;32;20077;-56
2021/06/11 03:40:11;;;;;;;0.40;0.40;;;20.10;99.90;;;;;;4430577;32;20124;-58
2021/06/11 03:42:37;;;;;;;0.60;0.60;;;20.10;99.90;;;;;;4410855;32;20065;-56
2021/06/11 03:45:03;;;;;;;3.35;1.20;;;20.20;99.90;;;;;;4431337;32;20077;-58
2021/06/11 03:47:33;;;;;;;0.35;0.35;;;20.20;99.90;;;;;;4430005;32;20074;-59
2021/06/11 03:50:00;;;;;;;0.52;0.40;;;20.20;99.90;;;;;;4430448;32;20077;-57
2021/06/11 03:52:29;;;;;;;0.70;0.70;;;20.10;99.90;;;;;;4431199;32;20073;-58
2021/06/11 03:55:00;;;;;;;0.30;0.30;;;20.10;99.90;;;;;;4430767;32;20109;-57
2021/06/11 03:57:28;;;;;;;0.50;0.50;;;20.10;99.90;;;;;;4417247;32;20116;-59
2021/06/11 03:59:54;;;;;;;1.12;0.55;;;20.20;99.90;;;;;;4430564;32;20069;-56
2021/06/11 04:02:21;;;;;;;0.40;0.40;;;20.20;99.90;;;;;;4404016;32;20081;-55
2021/06/11 04:04:47;;;;;;;1.55;0.85;;;20.10;99.90;;;;;;4430649;32;20116;-58
2021/06/11 04:07:17;;;;;;;0.30;0.30;;;20.10;99.90;;;;;;4430749;32;20065;-57
2021/06/11 04:09:47;;;;;;;0.70;0.50;;;20.20;99.90;;;;;;4430031;32;20078;-55
2021/06/11 04:12:22;;;;;;;0.35;0.35;;;20.30;99.90;;;;;;4417161;32;20120;-57
2021/06/11 04:14:50;;;;;;;1.00;0.90;;;20.20;99.90;;;;;;4414747;32;20113;-58
2021/06/11 04:17:21;;;;;;;0.65;0.65;;;20.20;99.90;;;;;;4388969;32;20078;-55
2021/06/11 04:19:54;;;;;;;0.30;0.30;;;20.20;99.90;;;;;;4400677;32;20097;-57
2021/06/11 04:22:24;;;;;;;0.40;0.35;;;20.10;99.90;;;;;;4413982;32;20693;-59
2021/06/11 04:24:50;;;;;;;;;;;20.10;99.90;;;;;;4400481;32;20132;-56
2021/06/11 04:27:18;;;;;;;0.73;0.43;;;20.10;99.90;;;;;;4427155;32;19960;-59
2021/06/11 04:29:46;;;;;;;1.25;0.50;;;20.20;99.90;;;;;;4428939;32;20045;-56
2021/06/11 04:32:13;;;;;;;0.28;0.28;;;20.20;99.90;;;;;;4429674;32;20157;-58
2021/06/11 04:34:38;;;;;;;0.47;0.47;;;20.30;99.90;;;;;;4402596;32;20057;-57
2021/06/11 04:37:04;;;;;;;0.32;0.32;;;20.30;99.90;;;;;;4416000;32;20078;-59
2021/06/11 04:39:30;;;;;;;13.35;2.92;;;20.30;99.90;;;;;;4427861;32;20437;-57
2021/06/11 04:41:55;;;;;;;0.35;0.35;;;20.30;99.90;;;;;;4400985;32;20061;-57
2021/06/11 04:44:22;;;;;;;0.30;0.30;;;20.30;99.90;;;;;;4413692;32;20078;-59
2021/06/11 04:46:48;;;;;;;0.37;0.37;;;20.30;99.90;;;;;;4400882;32;20514;-58
2021/06/11 04:49:13;;;;;;;0.50;0.50;;;20.30;99.90;;;;;;4414051;32;20128;-58
2021/06/11 04:51:39;;;;;;;1.08;0.68;;;20.30;99.90;;;;;;4415026;32;20174;-55
2021/06/11 04:54:05;;;;;;;0.62;0.47;;;20.30;99.90;;;;;;4418654;32;20567;-58
2021/06/11 04:56:30;;;;;;;0.25;0.25;;;20.40;99.90;;;;;;4400725;32;20066;-59
2021/06/11 04:58:58;;;;;;;1.33;0.70;;;20.30;99.90;;;;;;4422789;32;20073;-58
2021/06/11 05:01:24;;;;;;;0.62;0.60;;;20.40;99.90;;;;;;4414743;32;20806;-56
2021/06/11 05:03:50;;;;;;;0.30;0.30;;;20.50;99.90;;;;;;4424511;32;20069;-57
2021/06/11 05:06:15;;;;;;;0.45;0.45;;;20.60;99.90;;;;;;4429177;32;20122;-59
2021/06/11 05:08:42;;;;;;;2.67;0.80;;;20.70;99.90;;;;;;4406643;32;20436;-59
2021/06/11 05:11:08;;;;;;;0.65;0.47;;;20.70;99.90;;;;;;4403760;32;20883;-59
2021/06/11 05:13:33;;;;;;;0.52;0.28;;;20.80;99.90;;;;;;4406857;32;20057;-56
2021/06/11 05:15:59;;;;;;;0.35;0.32;;;20.90;99.90;;;;;;4421791;32;20522;-59
2021/06/11 05:18:26;;;;;;;0.30;0.30;;;21.00;99.90;;;;;;4406649;32;20069;-56
2021/06/11 05:20:52;;;;;;;0.55;0.50;;;21.00;98.50;;;;;;4416486;32;20567;-58
2021/06/11 05:23:19;;;;;;;0.40;0.17;;;21.10;98.30;;;;;;4400845;32;20110;-60
2021/06/11 05:25:46;;;;;;;1.27;0.43;;;21.20;98.50;;;;;;4415584;32;20148;-59
2021/06/11 05:28:12;;;;;;;0.25;0.25;;;21.30;99.00;;;;;;4409358;32;20088;-58
2021/06/11 05:30:37;;;;;;;0.40;0.40;;;21.30;98.60;;;;;;4407971;32;20069;-58
2021/06/11 05:33:03;;;;;;;6.22;0.57;;;21.30;98.70;;;;;;4404329;32;20185;-57
2021/06/11 05:35:30;;;;;;;0.40;0.40;;;21.30;98.20;;;;;;4414729;32;20140;-57
2021/06/11 05:37:58;;;;;;;1.73;0.75;;;21.40;98.00;;;;;;4405097;32;20562;-59
2021/06/11 05:40:24;;;;;;;0.20;0.20;;;21.50;97.10;;;;;;4392219;32;20098;-57
2021/06/11 05:42:49;;;;;;;0.30;0.30;;;21.60;97.80;;;;;;4399244;32;20061;-56
2021/06/11 05:45:15;;;;;;;0.20;0.20;;;21.70;96.30;;;;;;4419286;32;20425;-56
2021/06/11 05:47:41;;;;;;;0.40;0.37;;;21.80;96.40;;;;;;4405455;32;20567;-58
2021/06/11 05:50:08;;;;;;;0.20;0.20;;;21.80;95.30;;;;;;4392859;32;20147;-59
2021/06/11 05:52:34;;;;;;;0.25;0.25;;;21.80;95.80;;;;;;4410933;32;20062;-57
2021/06/11 05:55:00;;;;;;;3.62;1.27;;;21.70;96.00;;;;;;4405357;32;20174;-55
2021/06/11 05:57:26;;;;;;;1.70;0.60;;;21.70;96.10;;;;;;4420400;32;20082;-57
2021/06/11 05:59:53;;;;;;;0.30;0.30;;;21.80;95.90;;;;;;4417772;32;20162;-59
2021/06/11 06:02:19;;;;;;;0.43;0.43;;;21.80;95.50;;;;;;4415513;32;20124;-56
2021/06/11 06:04:45;;;;;;;1.00;0.52;;;21.90;94.60;;;;;;4413837;32;20486;-55
2021/06/11 06:07:11;;;;;;;0.52;0.40;;;22.00;94.60;;;;;;4422437;32;20511;-59
2021/06/11 06:09:37;;;;;;;0.30;0.30;;;22.00;94.80;;;;;;4419816;32;20069;-59
2021/06/11 06:12:03;;;;;;;0.30;0.30;;;22.10;94.60;;;;;;4416232;32;20113;-57
2021/06/11 06:14:28;;;;;;;0.22;0.22;;;22.10;94.50;;;;;;4415331;32;20205;-58
2021/06/11 06:16:53;;;;;;;1.58;0.70;;;22.20;94.70;;;;;;4415970;32;20076;-58
2021/06/11 06:19:19;;;;;;;0.30;0.30;;;22.30;93.90;;;;;;4420892;32;20077;-58
2021/06/11 06:21:44;;;;;;;0.30;0.30;;;22.20;93.80;;;;;;4405029;32;20070;-58
2021/06/11 06:24:10;;;;;;;1.75;0.70;;;22.20;93.70;;;;;;4422051;32;20098;-58
2021/06/11 06:26:35;;;;;;;0.35;0.35;;;22.30;93.30;;;;;;4418234;32;20065;-60
2021/06/11 06:29:01;;;;;;;0.20;0.20;;;22.30;93.10;;;;;;4423798;32;20085;-56
2021/06/11 06:31:27;;;;;;;0.22;0.22;;;22.40;93.20;;;;;;4407891;32;20152;-56
2021/06/11 06:33:53;;;;;;;0.35;0.35;;;22.40;93.00;;;;;;4409818;32;20821;-58
2021/06/11 06:36:18;;;;;;;0.43;0.43;;;22.50;92.80;;;;;;4408885;32;20130;-56
2021/06/11 06:38:45;;;;;;;0.30;0.30;;;22.50;93.10;;;;;;4416222;32;20089;-57
2021/06/11 06:41:10;;;;;;;0.22;0.22;;;22.60;92.90;;;;;;4403235;32;20062;-56
2021/06/11 06:43:36;;;;;;;0.50;0.50;;;22.80;92.70;;;;;;4419904;32;20077;-56
2021/06/11 06:46:02;;;;;;;0.30;0.30;;;22.90;92.70;;;;;;4420036;32;20100;-58
2021/06/11 06:48:27;;;;;;;0.30;0.30;;;22.90;92.70;;;;;;4418956;32;20066;-58
2021/06/11 06:50:56;;;;;;;0.30;0.30;;;23.00;92.20;;;;;;4419138;32;20111;-60
2021/06/11 06:53:21;;;;;;;0.20;0.20;;;22.90;92.00;;;;;;4414269;32;20255;-58
2021/06/11 06:55:47;;;;;;;0.30;0.30;;;22.90;92.20;;;;;;4421542;32;20104;-60
2021/06/11 06:58:13;;;;;;;0.60;0.60;;;22.90;92.20;;;;;;4429619;32;20196;-58
2021/06/11 07:00:38;;;;;;;3.30;1.37;;;22.90;92.30;;;;;;4406658;32;20061;-59
2021/06/11 07:03:04;;;;;;;0.40;0.40;;;23.10;92.50;;;;;;4408172;32;20070;-55
2021/06/11 07:05:30;;;;;;;2.05;1.20;;;23.30;92.20;;;;;;4413878;32;20132;-63
2021/06/11 07:07:55;;;;;;;0.75;0.62;;;23.30;92.00;;;;;;4422277;32;20085;-58
2021/06/11 07:10:21;;;;;;;0.20;0.20;;;23.40;92.00;;;;;;4419319;32;20086;-56
2021/06/11 07:12:47;;;;;;;0.45;0.45;;;23.40;91.70;;;;;;4395935;32;20101;-62
2021/06/11 07:15:13;;;;;;;0.52;0.43;;;23.50;91.40;;;;;;4404876;32;20086;-61
2021/06/11 07:17:39;;;;;;;1.83;0.60;;;23.70;91.00;;;;;;4416119;32;20127;-59
2021/06/11 07:20:05;;;;;;;2.58;0.85;;;23.70;90.90;;;;;;4393159;32;20069;-58
2021/06/11 07:22:31;;;;;;;3.10;1.48;;;23.50;91.30;;;;;;4420464;32;20069;-57
2021/06/11 07:24:57;;;;;;;1.17;0.68;;;23.50;91.70;;;;;;4404012;32;20079;-59
2021/06/11 07:27:22;;;;;;;0.30;0.30;;;23.70;91.60;;;;;;4421689;32;20215;-61
2021/06/11 07:29:50;;;;;;;2.03;0.40;;;24.00;91.40;;;;;;4406739;32;20061;-59
2021/06/11 07:32:17;;;;;;;0.35;0.35;;;24.20;90.50;;;;;;4415681;32;20652;-58
2021/06/11 07:34:43;;;;;;;0.40;0.40;;;24.20;90.20;;;;;;4415918;32;20102;-58
2021/06/11 07:37:09;;;;;;;0.20;0.20;;;24.30;90.50;;;;;;4404981;32;20136;-59
2021/06/11 07:39:35;;;;;;;2.55;0.93;;;24.40;90.20;;;;;;4421063;32;20062;-58
2021/06/11 07:42:01;;;;;;;0.30;0.30;;;24.40;89.70;;;;;;4419472;32;20305;-59
2021/06/11 07:44:27;;;;;;;0.20;0.20;;;24.60;89.50;;;;;;4398309;32;20132;-59
2021/06/11 07:46:52;;;;;;;1.77;0.65;;;24.70;89.30;;;;;;4415546;32;20569;-59
2021/06/11 07:49:18;;;;;;;0.20;0.20;;;24.70;89.80;;;;;;4415358;32;20086;-58
2021/06/11 07:51:44;;;;;;;0.20;0.20;;;24.90;88.20;;;;;;4417433;32;20955;-56
2021/06/11 07:54:09;;;;;;;0.20;0.20;;;25.00;88.30;;;;;;4415226;32;20092;-58
2021/06/11 07:56:37;;;;;;;0.47;0.43;;;25.00;87.60;;;;;;4420916;32;20608;-58
2021/06/11 07:59:03;;;;;;;0.25;0.25;;;25.00;88.20;;;;;;4417359;32;20066;-57
2021/06/11 08:01:29;;;;;;;1.55;1.12;;;25.20;88.40;;;;;;4415018;32;20069;-59
2021/06/11 08:03:54;;;;;;;0.40;0.40;;;25.30;87.50;;;;;;4417401;32;20117;-56
2021/06/11 08:06:20;;;;;;;0.22;0.22;;;25.30;86.60;;;;;;4417404;32;20392;-58
2021/06/11 08:08:45;;;;;;;0.30;0.30;;;25.30;87.10;;;;;;4404791;32;20424;-55
2021/06/11 08:11:11;;;;;;;0.40;0.40;;;25.20;87.00;;;;;;4420028;32;20073;-56
2021/06/11 08:13:38;;;;;;;0.20;0.20;;;25.20;87.00;;;;;;4416171;32;20073;-57
2021/06/11 08:16:04;;;;;;;0.40;0.40;;;25.30;88.50;;;;;;4404367;32;20077;-59
2021/06/11 08:18:30;;;;;;;0.40;0.30;;;25.50;87.70;;;;;;4401307;32;20507;-59
2021/06/11 08:20:56;;;;;;;0.30;0.30;;;25.50;85.60;;;;;;4417951;32;20452;-58
2021/06/11 08:23:22;;;;;;;0.43;0.43;;;25.50;85.80;;;;;;4421325;32;20101;-57
2021/06/11 08:25:47;;;;;;;0.55;0.37;;;25.70;86.20;;;;;;4405806;32;20066;-58
2021/06/11 08:28:13;;;;;;;0.90;0.65;;;25.60;85.60;;;;;;4422455;32;20097;-56
2021/06/11 08:30:38;;;;;;;0.28;0.28;;;25.50;84.00;;;;;;4415754;32;20082;-54
2021/06/11 08:33:06;;;;;;;0.35;0.30;;;25.50;85.00;;;;;;4402720;32;20150;-56
2021/06/11 08:35:31;;;;;;;0.28;0.28;;;25.80;85.00;;;;;;4416538;32;20314;-56
2021/06/11 08:37:57;;;;;;;0.22;0.22;;;26.00;85.00;;;;;;4413784;32;22001;-57
2021/06/11 08:40:23;;;;;;;0.10;0.10;;;26.20;82.90;;;;;;4414876;32;20094;-56
2021/06/11 08:42:49;;;;;;;2.78;0.73;;;26.20;81.50;;;;;;4415234;32;20574;-58
2021/06/11 08:45:16;;;;;;;0.30;0.30;;;26.20;82.50;;;;;;4416379;32;20089;-59
2021/06/11 08:47:47;;;;;;;0.22;0.22;;;26.00;83.30;;;;;;4400213;32;20077;-59
2021/06/11 08:50:15;;;;;;;0.22;0.22;;;25.90;83.00;;;;;;4401894;32;20066;-59
2021/06/11 08:52:41;;;;;;;0.37;0.37;;;25.60;82.30;;;;;;4403736;32;20916;-59
2021/06/11 08:55:07;;;;;;;0.50;0.50;;;25.40;82.70;;;;;;4404033;32;20122;-60
2021/06/11 08:57:33;;;;;;;0.10;0.10;;;25.50;83.60;;;;;;4417147;32;20074;-59
2021/06/11 08:59:58;;;;;;;5.97;0.35;;;25.60;83.10;;;;;;4400561;32;20511;-60
2021/06/11 09:02:25;;;;;;;0.35;0.35;;;25.90;83.60;;;;;;4414213;32;20098;-57
2021/06/11 09:04:55;;;;;;;0.50;0.50;;;25.80;82.20;;;;;;4415771;32;20120;-59
2021/06/11 09:07:26;;;;;;;0.43;0.43;;;25.70;81.50;;;;;;4421567;32;20129;-55
2021/06/11 09:09:58;;;;;;;0.17;0.17;;;25.50;81.20;;;;;;4401175;32;20065;-58
2021/06/11 09:12:29;;;;;;;0.30;0.30;;;25.70;82.00;;;;;;4392325;32;20065;-59
2021/06/11 09:14:57;;;;;;;0.40;0.40;;;25.80;81.10;;;;;;4397548;32;20086;-57
2021/06/11 09:17:44;;;;;;;0.30;0.30;;;26.00;82.00;;;;;;4416188;32;20077;-60
2021/06/11 09:20:20;;;;;;;0.30;0.30;;;26.40;81.60;;;;;;4406557;32;20094;-58
2021/06/11 09:22:48;;;;;;;0.25;0.25;;;26.40;80.90;;;;;;4415628;32;20135;-59
2021/06/11 09:25:37;;;;;;;0.40;0.40;;;26.10;80.70;;;;;;4404089;32;20078;-58
2021/06/11 09:28:05;;;;;;;2.90;0.52;;;25.90;79.60;;;;;;4403184;32;20061;-59
2021/06/11 09:30:37;;;;;;;0.20;0.20;;;26.00;79.10;;;;;;4413772;32;20098;-59
2021/06/11 09:33:08;;;;;;;10.90;0.45;;;26.30;79.80;;;;;;4413801;32;20101;-59
2021/06/11 09:35:37;;;;;;;0.25;0.25;;;26.50;77.60;;;;;;4417019;32;20515;-59
2021/06/11 09:38:09;;;;;;;1.05;0.52;;;26.50;77.20;;;;;;4419870;32;20108;-59
2021/06/11 09:40:34;;;;;;;0.30;0.30;;;26.70;76.20;;;;;;4414491;32;72847;-58
2021/06/11 09:43:02;;;;;;;0.30;0.30;;;26.80;75.10;;;;;;4417939;32;20082;-59
2021/06/11 09:45:28;;;;;;;0.32;0.32;;;26.90;75.20;;;;;;4416691;32;20081;-59
2021/06/11 09:47:55;;;;;;;0.20;0.20;;;27.10;74.70;;;;;;4408235;32;20532;-56
2021/06/11 09:50:25;;;;;;;0.20;0.20;;;27.30;75.00;;;;;;4420503;32;20057;-55
2021/06/11 09:53:09;;;;;;;0.23;0.23;;;27.30;72.80;;;;;;4418780;32;20114;-57
2021/06/11 09:55:40;;;;;;;0.40;0.40;;;27.40;73.80;;;;;;4420337;32;20125;-59
2021/06/11 09:58:09;;;;;;;0.88;0.30;;;27.30;74.50;;;;;;4410321;32;20127;-58
2021/06/11 10:00:41;;;;;;;0.32;0.32;;;27.00;74.80;;;;;;4400118;32;20082;-59
2021/06/11 10:03:12;;;;;;;0.20;0.20;;;26.80;75.80;;;;;;4401066;32;20092;-56
2021/06/11 10:05:39;;;;;;;0.37;0.37;;;26.50;76.70;;;;;;4418330;32;20065;-56
2021/06/11 10:08:07;;;;;;;0.20;0.20;;;26.50;75.00;;;;;;4405966;32;20073;-59
2021/06/11 10:10:32;;;;;;;4.20;0.77;;;26.90;75.30;;;;;;4400187;32;20098;-60
2021/06/11 10:12:58;;;;;;;0.22;0.10;;;27.10;75.60;;;;;;4400884;32;20070;-60
2021/06/11 10:15:24;;;;;;;0.20;0.20;;;27.70;75.20;;;;;;4401533;32;20558;-60
2021/06/11 10:17:50;;;;;;;0.20;0.20;;;28.00;74.40;;;;;;4421502;32;20148;-59
2021/06/11 10:20:15;;;;;;;0.20;0.20;;;28.30;74.30;;;;;;4421580;32;20065;-59
2021/06/11 10:22:41;;;;;;;0.00;0.00;;;28.40;72.20;;;;;;4412975;32;20467;-60
2021/06/11 10:25:11;;;;;;;0.20;0.20;;;28.30;71.40;;;;;;4399941;32;20089;-58
2021/06/11 10:27:40;;;;;;;;;;;28.30;72.40;;;;;;4419385;32;20135;-60
2021/06/11 10:30:07;;;;;;;0.68;0.45;;;28.10;72.00;;;;;;4423934;32;19956;-60
2021/06/11 10:32:38;;;;;;;0.17;0.17;;;27.80;73.20;;;;;;4418235;32;20097;-60
2021/06/11 10:35:04;;;;;;;0.10;0.10;;;27.40;73.60;;;;;;4419608;32;20085;-59
2021/06/11 10:37:39;;;;;;;0.30;0.30;;;27.00;75.40;;;;;;4419361;32;20525;-58
2021/06/11 10:40:15;;;;;;;0.17;0.17;;;26.90;76.60;;;;;;4417553;32;20108;-59
2021/06/11 10:42:41;;;;;;;0.25;0.25;;;26.60;75.50;;;;;;4403911;32;20117;-59
2021/06/11 10:45:07;;;;;;;1.35;0.57;;;26.30;75.80;;;;;;4404786;32;20133;-59
2021/06/11 10:47:34;;;;;;;0.10;0.10;;;26.40;76.00;;;;;;4405518;32;20077;-58
2021/06/11 10:50:04;;;;;;;0.88;0.47;;;27.00;75.50;;;;;;4414343;32;20065;-59
2021/06/11 10:52:35;;;;;;;0.53;0.53;;;27.20;74.80;;;;;;4400627;32;20132;-56
2021/06/11 10:55:24;;;;;;;0.30;0.30;;;27.10;75.10;;;;;;4416772;32;20195;-60
2021/06/11 10:57:53;;;;;;;0.85;0.43;;;27.60;74.90;;;;;;4404100;32;20058;-60
2021/06/11 11:00:22;;;;;;;0.43;0.43;;;27.90;74.10;;;;;;4418464;32;20172;-56
2021/06/11 11:02:52;;;;;;;0.75;0.45;;;28.00;73.20;;;;;;4418127;32;20064;-58
2021/06/11 11:05:29;;;;;;;1.55;0.47;;;28.10;74.00;;;;;;4402520;32;20477;-57
2021/06/11 11:07:55;;;;;;;0.05;0.05;;;28.50;73.70;;;;;;4403636;32;20124;-59
2021/06/11 11:10:39;;;;;;;0.47;0.35;;;29.10;71.90;;;;;;4407063;32;20123;-60
2021/06/11 11:13:07;;;;;;;0.45;0.28;;;28.90;72.10;;;;;;4418920;32;20101;-59
2021/06/11 11:15:36;;;;;;;0.30;0.30;;;28.30;72.60;;;;;;4396856;32;20523;-60
2021/06/11 11:18:04;;;;;;;0.20;0.20;;;28.20;71.90;;;;;;4404866;32;20149;-61
2021/06/11 11:20:34;;;;;;;0.20;0.20;;;28.60;71.00;;;;;;4406565;32;20077;-60
2021/06/11 11:23:01;;;;;;;0.47;0.47;;;28.80;69.10;;;;;;4422585;32;20479;-60
2021/06/11 11:25:28;;;;;;;0.40;0.25;;;29.00;69.10;;;;;;4405358;32;20495;-58
2021/06/11 11:27:55;;;;;;;0.35;0.35;;;29.60;67.20;;;;;;4400973;32;20074;-59
2021/06/11 11:30:26;;;;;;;0.10;0.10;;;29.90;66.30;;;;;;4400877;32;20093;-59
2021/06/11 11:32:51;;;;;;;0.10;0.10;;;30.10;66.30;;;;;;4411474;32;20081;-60
2021/06/11 11:35:19;;;;;;;0.20;0.20;;;30.20;66.50;;;;;;4395779;32;20116;-59
2021/06/11 11:37:48;;;;;;;0.43;0.40;;;29.90;66.70;;;;;;4402367;32;20202;-61
2021/06/11 11:40:14;;;;;;;3.85;1.08;;;29.60;67.30;;;;;;4393927;32;20093;-60
2021/06/11 11:42:40;;;;;;;0.47;0.43;;;29.90;67.60;;;;;;4416756;32;20062;-60
2021/06/11 11:45:06;;;;;;;4.30;0.20;;;30.30;66.90;;;;;;4415530;32;20090;-60
2021/06/11 11:47:31;;;;;;;0.52;0.30;;;30.40;65.90;;;;;;4397247;32;20503;-59
2021/06/11 11:49:57;;;;;;;0.10;0.10;;;29.70;67.20;;;;;;4417842;32;20090;-60
2021/06/11 11:52:22;;;;;;;0.43;0.30;;;29.60;67.80;;;;;;4416047;32;20074;-61
2021/06/11 11:54:48;;;;;;;0.43;0.43;;;29.90;67.40;;;;;;4413739;32;20209;-61
2021/06/11 11:57:13;;;;;;;0.10;0.10;;;30.60;64.40;;;;;;4419529;32;20420;-60
2021/06/11 11:59:39;;;;;;;0.32;0.10;;;30.80;63.40;;;;;;4408982;32;20065;-60
2021/06/11 12:02:08;;;;;;;0.80;0.10;;;30.70;63.20;;;;;;4418385;32;20072;-61
2021/06/11 12:04:34;;;;;;;0.17;0.17;;;30.80;63.90;;;;;;4417874;32;20128;-61
2021/06/11 12:06:59;;;;;;;0.73;0.55;;;31.30;63.10;;;;;;4418027;32;20089;-61
2021/06/11 12:09:25;;;;;;;0.00;0.00;;;31.60;61.60;;;;;;4414036;32;20133;-60
2021/06/11 12:11:50;;;;;;;0.37;0.20;;;31.60;61.90;;;;;;4413861;32;20143;-59
2021/06/11 12:14:16;;;;;;;0.15;0.15;;;31.20;62.60;;;;;;4415519;32;20499;-59
2021/06/11 12:16:41;;;;;;;0.05;0.03;;;30.80;62.80;;;;;;4414084;32;20167;-59
2021/06/11 12:19:07;;;;;;;0.10;0.10;;;31.10;61.50;;;;;;4413990;32;20077;-60
2021/06/11 12:21:33;;;;;;;0.28;0.20;;;31.60;60.60;;;;;;4417444;32;20097;-57
2021/06/11 12:23:58;;;;;;;0.00;0.00;;;32.00;59.70;;;;;;4400834;32;20541;-59
2021/06/11 12:26:24;;;;;;;25.62;1.55;;;32.40;59.20;;;;;;4412557;32;20176;-57
2021/06/11 12:28:51;;;;;;;0.00;0.00;;;32.80;57.90;;;;;;4407540;32;20098;-57
2021/06/11 12:31:17;;;;;;;0.00;0.00;;;33.20;57.10;;;;;;4403999;32;20101;-56
2021/06/11 12:33:42;;;;;;;0.45;0.30;;;33.00;56.80;;;;;;4398766;32;20062;-58
2021/06/11 12:36:08;;;;;;;0.47;0.10;;;33.10;57.00;;;;;;4411924;32;20108;-58
2021/06/11 12:38:34;;;;;;;0.20;0.17;;;33.10;56.20;;;;;;4400119;32;20146;-58
2021/06/11 12:41:00;;;;;;;0.05;0.00;;;33.50;55.80;;;;;;4397543;32;20078;-56
2021/06/11 12:44:14;;;;;;;0.10;0.10;;;33.00;56.20;;;;;;4399457;32;20189;-58
2021/06/11 12:46:12;;;;;;;0.08;0.08;;;33.40;56.20;;;;;;4392140;32;20420;-58
2021/06/11 12:48:37;;;;;;;0.10;0.10;;;33.20;55.80;;;;;;4399754;32;20074;-58